Startpagina
METAR-TAF:

METAR-TAF

Vliegvelden :

Pointe-Noire, Congo

Luchthaven Pointe-Noire

breedte: 04-49S, lengte: 011-54E, hoogte: 17 m

Actueel weer

Dit bericht is 1 uur en het 18 minuten geleden gemaakt, om 20:00 UTC
Wind 5 kt uit het westzuidwesten
Temperatuur 27°C
Vochtigheid 89%
Druk 1010 hPa
Zicht: 7000 m
Weinig wolken op 1000 ft

METAR: FCPP 222000Z 24005KT 7000 FEW010 27/25 Q1010 NOSIG

Tijdstip: 22:18 (21:18 UTC)

Verwachting

Dit bericht is 4 uur en het 18 minuten geleden gemaakt, om 17:00 UTC
Verwachting geldig van 22 om 18 UTC tot 23 om 18 UTC
Wind 6 kt uit het zuidzuidwesten
Zicht: 8000 m
Verspreide wolken op 1500 ft
Gebroken wolken op 2300 ft
Kans 30%
van 23 om 04 UTC tot 23 om 08 UTC
Zicht: 2000 m
nevel

TAF: FCPP 221700Z 2218/2318 20006KT 8000 SCT015 BKN023 PROB30 2304/2308 2000 BR

Waarnemingen en weersverwachtingen van meer dan 4000 vliegvelden (METAR en TAF).

De beschikbare stations zijn de gele en rode punten op de kaart.

Ga met uw muis naar het station om de naam te zien.

Klik dan om waarnemingen en weersverwachtingen te zien.

kaart wijzigen: klik op de groene knoppen met een zwart kruis om in te zoomen, op de groene knop met een streepje om uit te zoomen of op de groene pijlen voor aangrenzende kaarten.


METAR-TAF: